sensor_id;sensor_type;location;lat;lon;timestamp;P1;durP1;ratioP1;P2;durP2;ratioP2
30127;SDS011;16942;53.196;6.592;2023-06-14T00:01:26;2.73;;;1.53;;
30127;SDS011;16942;53.196;6.592;2023-06-14T00:03:53;2.53;;;1.80;;
30127;SDS011;16942;53.196;6.592;2023-06-14T00:06:20;2.07;;;1.60;;
30127;SDS011;16942;53.196;6.592;2023-06-14T00:08:46;2.30;;;1.70;;
30127;SDS011;16942;53.196;6.592;2023-06-14T00:11:12;3.23;;;1.77;;
30127;SDS011;16942;53.196;6.592;2023-06-14T00:13:38;4.90;;;1.60;;
30127;SDS011;16942;53.196;6.592;2023-06-14T00:16:05;2.03;;;1.80;;
30127;SDS011;16942;53.196;6.592;2023-06-14T00:18:31;2.10;;;1.70;;
30127;SDS011;16942;53.196;6.592;2023-06-14T00:20:58;3.30;;;2.30;;
30127;SDS011;16942;53.196;6.592;2023-06-14T00:23:24;3.33;;;1.80;;
30127;SDS011;16942;53.196;6.592;2023-06-14T00:25:50;5.27;;;2.00;;
30127;SDS011;16942;53.196;6.592;2023-06-14T00:28:16;6.00;;;2.13;;
30127;SDS011;16942;53.196;6.592;2023-06-14T00:30:42;2.00;;;1.43;;
30127;SDS011;16942;53.196;6.592;2023-06-14T00:33:11;4.70;;;1.80;;
30127;SDS011;16942;53.196;6.592;2023-06-14T00:35:37;3.17;;;2.03;;
30127;SDS011;16942;53.196;6.592;2023-06-14T00:38:03;4.40;;;1.80;;
30127;SDS011;16942;53.196;6.592;2023-06-14T00:40:29;4.43;;;1.90;;
30127;SDS011;16942;53.196;6.592;2023-06-14T00:42:55;4.00;;;1.73;;
30127;SDS011;16942;53.196;6.592;2023-06-14T00:45:21;2.10;;;1.90;;
30127;SDS011;16942;53.196;6.592;2023-06-14T00:47:47;2.37;;;1.70;;
30127;SDS011;16942;53.196;6.592;2023-06-14T00:50:17;3.37;;;1.70;;
30127;SDS011;16942;53.196;6.592;2023-06-14T00:52:45;4.00;;;1.87;;
30127;SDS011;16942;53.196;6.592;2023-06-14T00:55:11;4.10;;;1.80;;
30127;SDS011;16942;53.196;6.592;2023-06-14T00:57:37;5.03;;;1.60;;
30127;SDS011;16942;53.196;6.592;2023-06-14T01:00:05;3.77;;;1.83;;
30127;SDS011;16942;53.196;6.592;2023-06-14T01:02:35;5.07;;;1.60;;
30127;SDS011;16942;53.196;6.592;2023-06-14T01:05:01;2.50;;;1.40;;
30127;SDS011;16942;53.196;6.592;2023-06-14T01:12:40;3.93;;;1.73;;
30127;SDS011;16942;53.196;6.592;2023-06-14T01:15:10;3.50;;;1.63;;
30127;SDS011;16942;53.196;6.592;2023-06-14T01:17:37;2.57;;;1.67;;
30127;SDS011;16942;53.196;6.592;2023-06-14T01:20:08;3.10;;;1.53;;
30127;SDS011;16942;53.196;6.592;2023-06-14T01:22:35;3.33;;;1.60;;
30127;SDS011;16942;53.196;6.592;2023-06-14T01:25:01;5.03;;;1.77;;
30127;SDS011;16942;53.196;6.592;2023-06-14T01:27:27;1.77;;;1.57;;
30127;SDS011;16942;53.196;6.592;2023-06-14T01:29:53;2.93;;;1.50;;
30127;SDS011;16942;53.196;6.592;2023-06-14T01:32:21;3.03;;;1.87;;
30127;SDS011;16942;53.196;6.592;2023-06-14T01:34:48;4.07;;;1.67;;
30127;SDS011;16942;53.196;6.592;2023-06-14T01:37:14;4.80;;;1.90;;
30127;SDS011;16942;53.196;6.592;2023-06-14T01:39:41;3.00;;;1.80;;
30127;SDS011;16942;53.196;6.592;2023-06-14T01:42:08;3.20;;;1.43;;
30127;SDS011;16942;53.196;6.592;2023-06-14T01:44:36;5.03;;;1.80;;
30127;SDS011;16942;53.196;6.592;2023-06-14T01:47:02;4.50;;;1.60;;
30127;SDS011;16942;53.196;6.592;2023-06-14T01:49:28;3.27;;;1.47;;
30127;SDS011;16942;53.196;6.592;2023-06-14T01:51:54;2.40;;;1.70;;
30127;SDS011;16942;53.196;6.592;2023-06-14T01:54:20;2.00;;;1.60;;
30127;SDS011;16942;53.196;6.592;2023-06-14T01:56:47;2.40;;;1.63;;
30127;SDS011;16942;53.196;6.592;2023-06-14T01:59:13;4.27;;;1.73;;
30127;SDS011;16942;53.196;6.592;2023-06-14T02:01:40;2.57;;;1.50;;
30127;SDS011;16942;53.196;6.592;2023-06-14T02:04:06;2.43;;;1.60;;
30127;SDS011;16942;53.196;6.592;2023-06-14T02:06:32;2.00;;;1.50;;
30127;SDS011;16942;53.196;6.592;2023-06-14T02:09:00;3.97;;;1.60;;
30127;SDS011;16942;53.196;6.592;2023-06-14T02:11:28;2.07;;;1.77;;
30127;SDS011;16942;53.196;6.592;2023-06-14T02:13:54;4.13;;;1.57;;
30127;SDS011;16942;53.196;6.592;2023-06-14T02:16:21;4.73;;;1.77;;
30127;SDS011;16942;53.196;6.592;2023-06-14T02:18:47;3.50;;;2.00;;
30127;SDS011;16942;53.196;6.592;2023-06-14T02:21:13;2.10;;;1.50;;
30127;SDS011;16942;53.196;6.592;2023-06-14T02:23:39;3.67;;;1.63;;
30127;SDS011;16942;53.196;6.592;2023-06-14T02:26:06;1.90;;;1.70;;
30127;SDS011;16942;53.196;6.592;2023-06-14T02:28:32;4.13;;;1.67;;
30127;SDS011;16942;53.196;6.592;2023-06-14T02:30:58;2.80;;;2.07;;
30127;SDS011;16942;53.196;6.592;2023-06-14T02:33:25;4.33;;;2.03;;
30127;SDS011;16942;53.196;6.592;2023-06-14T02:35:51;3.13;;;1.90;;
30127;SDS011;16942;53.196;6.592;2023-06-14T02:38:17;2.53;;;1.70;;
30127;SDS011;16942;53.196;6.592;2023-06-14T02:40:43;3.77;;;2.07;;
30127;SDS011;16942;53.196;6.592;2023-06-14T02:43:09;4.43;;;2.20;;
30127;SDS011;16942;53.196;6.592;2023-06-14T02:45:35;4.43;;;2.37;;
30127;SDS011;16942;53.196;6.592;2023-06-14T02:48:01;2.93;;;1.87;;
30127;SDS011;16942;53.196;6.592;2023-06-14T02:50:28;8.40;;;2.10;;
30127;SDS011;16942;53.196;6.592;2023-06-14T02:52:55;4.30;;;2.00;;
30127;SDS011;16942;53.196;6.592;2023-06-14T02:55:22;4.83;;;2.00;;
30127;SDS011;16942;53.196;6.592;2023-06-14T02:57:48;6.70;;;2.20;;
30127;SDS011;16942;53.196;6.592;2023-06-14T03:00:14;3.80;;;2.00;;
30127;SDS011;16942;53.196;6.592;2023-06-14T03:02:40;4.27;;;2.13;;
30127;SDS011;16942;53.196;6.592;2023-06-14T03:05:08;3.87;;;1.93;;
30127;SDS011;16942;53.196;6.592;2023-06-14T03:07:34;3.23;;;1.80;;
30127;SDS011;16942;53.196;6.592;2023-06-14T03:10:06;3.80;;;2.10;;
30127;SDS011;16942;53.196;6.592;2023-06-14T03:12:33;6.47;;;2.50;;
30127;SDS011;16942;53.196;6.592;2023-06-14T03:14:59;4.27;;;2.13;;
30127;SDS011;16942;53.196;6.592;2023-06-14T03:17:29;3.47;;;2.10;;
30127;SDS011;16942;53.196;6.592;2023-06-14T03:19:58;2.43;;;1.83;;
30127;SDS011;16942;53.196;6.592;2023-06-14T03:22:24;5.33;;;2.37;;
30127;SDS011;16942;53.196;6.592;2023-06-14T03:24:51;4.07;;;2.20;;
30127;SDS011;16942;53.196;6.592;2023-06-14T03:27:17;4.97;;;2.63;;
30127;SDS011;16942;53.196;6.592;2023-06-14T03:29:43;5.23;;;2.00;;
30127;SDS011;16942;53.196;6.592;2023-06-14T03:32:09;3.10;;;2.27;;
30127;SDS011;16942;53.196;6.592;2023-06-14T03:34:35;8.57;;;2.40;;
30127;SDS011;16942;53.196;6.592;2023-06-14T03:37:03;3.83;;;2.20;;
30127;SDS011;16942;53.196;6.592;2023-06-14T03:39:29;6.60;;;2.47;;
30127;SDS011;16942;53.196;6.592;2023-06-14T03:41:59;4.17;;;2.43;;
30127;SDS011;16942;53.196;6.592;2023-06-14T03:44:26;4.83;;;2.63;;
30127;SDS011;16942;53.196;6.592;2023-06-14T03:46:52;6.57;;;2.57;;
30127;SDS011;16942;53.196;6.592;2023-06-14T03:49:18;8.20;;;2.53;;
30127;SDS011;16942;53.196;6.592;2023-06-14T03:51:44;19.23;;;4.83;;
30127;SDS011;16942;53.196;6.592;2023-06-14T03:54:15;17.23;;;4.50;;
30127;SDS011;16942;53.196;6.592;2023-06-14T03:56:41;7.70;;;3.10;;
30127;SDS011;16942;53.196;6.592;2023-06-14T03:59:07;5.23;;;2.40;;
30127;SDS011;16942;53.196;6.592;2023-06-14T04:01:33;35.40;;;8.27;;
30127;SDS011;16942;53.196;6.592;2023-06-14T04:03:59;12.93;;;3.97;;
30127;SDS011;16942;53.196;6.592;2023-06-14T04:06:26;10.97;;;3.40;;
30127;SDS011;16942;53.196;6.592;2023-06-14T04:08:57;27.73;;;6.80;;
30127;SDS011;16942;53.196;6.592;2023-06-14T04:11:26;30.80;;;7.33;;
30127;SDS011;16942;53.196;6.592;2023-06-14T04:13:52;31.67;;;7.27;;
30127;SDS011;16942;53.196;6.592;2023-06-14T04:16:18;19.57;;;5.17;;
30127;SDS011;16942;53.196;6.592;2023-06-14T04:18:45;10.17;;;3.90;;
30127;SDS011;16942;53.196;6.592;2023-06-14T04:21:13;9.20;;;2.37;;
30127;SDS011;16942;53.196;6.592;2023-06-14T04:23:39;3.60;;;2.50;;
30127;SDS011;16942;53.196;6.592;2023-06-14T04:26:08;3.90;;;2.70;;
30127;SDS011;16942;53.196;6.592;2023-06-14T04:28:35;6.40;;;2.60;;
30127;SDS011;16942;53.196;6.592;2023-06-14T04:31:05;7.70;;;2.80;;
30127;SDS011;16942;53.196;6.592;2023-06-14T04:33:34;3.83;;;2.40;;
30127;SDS011;16942;53.196;6.592;2023-06-14T04:36:08;5.77;;;2.83;;
30127;SDS011;16942;53.196;6.592;2023-06-14T04:38:34;15.50;;;5.87;;
30127;SDS011;16942;53.196;6.592;2023-06-14T04:41:01;24.10;;;7.57;;
30127;SDS011;16942;53.196;6.592;2023-06-14T04:43:27;22.67;;;4.97;;
30127;SDS011;16942;53.196;6.592;2023-06-14T04:45:53;6.40;;;3.53;;
30127;SDS011;16942;53.196;6.592;2023-06-14T04:48:20;15.33;;;4.87;;
30127;SDS011;16942;53.196;6.592;2023-06-14T04:50:46;35.63;;;9.23;;
30127;SDS011;16942;53.196;6.592;2023-06-14T04:53:12;22.27;;;5.57;;
30127;SDS011;16942;53.196;6.592;2023-06-14T04:55:38;21.67;;;6.33;;
30127;SDS011;16942;53.196;6.592;2023-06-14T04:58:04;42.57;;;9.77;;
30127;SDS011;16942;53.196;6.592;2023-06-14T05:00:31;15.90;;;4.43;;
30127;SDS011;16942;53.196;6.592;2023-06-14T05:02:57;10.93;;;4.83;;
30127;SDS011;16942;53.196;6.592;2023-06-14T05:05:23;13.33;;;4.20;;
30127;SDS011;16942;53.196;6.592;2023-06-14T05:07:50;21.13;;;6.13;;
30127;SDS011;16942;53.196;6.592;2023-06-14T05:10:16;11.17;;;4.13;;
30127;SDS011;16942;53.196;6.592;2023-06-14T05:12:42;30.13;;;9.17;;
30127;SDS011;16942;53.196;6.592;2023-06-14T05:15:08;15.50;;;6.73;;
30127;SDS011;16942;53.196;6.592;2023-06-14T05:17:35;21.87;;;8.97;;
30127;SDS011;16942;53.196;6.592;2023-06-14T05:20:01;12.17;;;5.70;;
30127;SDS011;16942;53.196;6.592;2023-06-14T05:22:28;31.53;;;11.33;;
30127;SDS011;16942;53.196;6.592;2023-06-14T05:24:55;17.37;;;8.27;;
30127;SDS011;16942;53.196;6.592;2023-06-14T05:27:21;26.13;;;8.73;;
30127;SDS011;16942;53.196;6.592;2023-06-14T05:29:47;18.10;;;6.73;;
30127;SDS011;16942;53.196;6.592;2023-06-14T05:32:13;11.30;;;6.37;;
30127;SDS011;16942;53.196;6.592;2023-06-14T05:34:39;16.27;;;7.90;;
30127;SDS011;16942;53.196;6.592;2023-06-14T05:37:07;28.70;;;10.17;;
30127;SDS011;16942;53.196;6.592;2023-06-14T05:39:33;57.73;;;15.43;;
30127;SDS011;16942;53.196;6.592;2023-06-14T05:41:59;28.00;;;9.13;;
30127;SDS011;16942;53.196;6.592;2023-06-14T05:44:25;12.70;;;6.57;;
30127;SDS011;16942;53.196;6.592;2023-06-14T05:46:51;13.23;;;6.27;;
30127;SDS011;16942;53.196;6.592;2023-06-14T05:49:17;24.10;;;9.70;;
30127;SDS011;16942;53.196;6.592;2023-06-14T05:51:43;14.40;;;6.23;;
30127;SDS011;16942;53.196;6.592;2023-06-14T05:54:09;9.90;;;5.43;;
30127;SDS011;16942;53.196;6.592;2023-06-14T05:56:35;12.50;;;6.23;;
30127;SDS011;16942;53.196;6.592;2023-06-14T05:59:01;19.20;;;7.20;;
30127;SDS011;16942;53.196;6.592;2023-06-14T06:01:27;15.33;;;5.60;;
30127;SDS011;16942;53.196;6.592;2023-06-14T06:03:53;9.60;;;5.83;;
30127;SDS011;16942;53.196;6.592;2023-06-14T06:06:19;8.67;;;4.10;;
30127;SDS011;16942;53.196;6.592;2023-06-14T06:08:45;6.67;;;4.20;;
30127;SDS011;16942;53.196;6.592;2023-06-14T06:11:11;4.93;;;3.93;;
30127;SDS011;16942;53.196;6.592;2023-06-14T06:13:37;7.87;;;4.33;;
30127;SDS011;16942;53.196;6.592;2023-06-14T06:16:04;5.67;;;3.90;;
30127;SDS011;16942;53.196;6.592;2023-06-14T06:18:30;28.50;;;4.70;;
30127;SDS011;16942;53.196;6.592;2023-06-14T06:20:56;7.60;;;3.97;;
30127;SDS011;16942;53.196;6.592;2023-06-14T06:23:22;9.13;;;3.80;;
30127;SDS011;16942;53.196;6.592;2023-06-14T06:25:48;5.80;;;2.87;;
30127;SDS011;16942;53.196;6.592;2023-06-14T06:28:14;10.73;;;3.70;;
30127;SDS011;16942;53.196;6.592;2023-06-14T06:30:40;12.37;;;3.47;;
30127;SDS011;16942;53.196;6.592;2023-06-14T06:33:06;6.90;;;3.80;;
30127;SDS011;16942;53.196;6.592;2023-06-14T06:35:32;5.77;;;3.40;;
30127;SDS011;16942;53.196;6.592;2023-06-14T06:37:59;5.93;;;3.50;;
30127;SDS011;16942;53.196;6.592;2023-06-14T06:40:25;5.37;;;3.30;;
30127;SDS011;16942;53.196;6.592;2023-06-14T06:42:51;5.30;;;3.30;;
30127;SDS011;16942;53.196;6.592;2023-06-14T06:45:18;6.60;;;3.30;;
30127;SDS011;16942;53.196;6.592;2023-06-14T06:47:44;3.37;;;2.60;;
30127;SDS011;16942;53.196;6.592;2023-06-14T06:50:10;6.40;;;2.90;;
30127;SDS011;16942;53.196;6.592;2023-06-14T06:52:36;5.87;;;3.23;;
30127;SDS011;16942;53.196;6.592;2023-06-14T06:55:02;7.63;;;3.43;;
30127;SDS011;16942;53.196;6.592;2023-06-14T06:57:28;5.07;;;2.87;;
30127;SDS011;16942;53.196;6.592;2023-06-14T06:59:54;7.03;;;2.97;;
30127;SDS011;16942;53.196;6.592;2023-06-14T07:02:20;4.27;;;3.17;;
30127;SDS011;16942;53.196;6.592;2023-06-14T07:04:46;6.10;;;2.83;;
30127;SDS011;16942;53.196;6.592;2023-06-14T07:07:12;4.83;;;2.80;;
30127;SDS011;16942;53.196;6.592;2023-06-14T07:09:39;3.23;;;2.57;;
30127;SDS011;16942;53.196;6.592;2023-06-14T07:12:07;3.83;;;2.47;;
30127;SDS011;16942;53.196;6.592;2023-06-14T07:14:33;11.30;;;3.30;;
30127;SDS011;16942;53.196;6.592;2023-06-14T07:16:59;4.53;;;2.53;;
30127;SDS011;16942;53.196;6.592;2023-06-14T07:19:25;6.10;;;2.87;;
30127;SDS011;16942;53.196;6.592;2023-06-14T07:21:51;4.43;;;2.80;;
30127;SDS011;16942;53.196;6.592;2023-06-14T07:24:17;6.63;;;3.93;;
30127;SDS011;16942;53.196;6.592;2023-06-14T07:26:43;8.60;;;3.00;;
30127;SDS011;16942;53.196;6.592;2023-06-14T07:29:09;5.30;;;2.23;;
30127;SDS011;16942;53.196;6.592;2023-06-14T07:31:35;6.60;;;2.30;;
30127;SDS011;16942;53.196;6.592;2023-06-14T07:34:02;5.60;;;2.70;;
30127;SDS011;16942;53.196;6.592;2023-06-14T07:36:28;5.33;;;2.37;;
30127;SDS011;16942;53.196;6.592;2023-06-14T07:38:54;3.37;;;2.60;;
30127;SDS011;16942;53.196;6.592;2023-06-14T07:41:21;8.47;;;2.60;;
30127;SDS011;16942;53.196;6.592;2023-06-14T07:43:47;9.57;;;2.90;;
30127;SDS011;16942;53.196;6.592;2023-06-14T07:46:13;7.83;;;2.57;;
30127;SDS011;16942;53.196;6.592;2023-06-14T07:48:39;6.50;;;2.57;;
30127;SDS011;16942;53.196;6.592;2023-06-14T07:51:05;4.57;;;2.60;;
30127;SDS011;16942;53.196;6.592;2023-06-14T07:53:31;4.80;;;2.70;;
30127;SDS011;16942;53.196;6.592;2023-06-14T07:55:57;2.97;;;2.67;;
30127;SDS011;16942;53.196;6.592;2023-06-14T07:58:23;3.70;;;2.57;;
30127;SDS011;16942;53.196;6.592;2023-06-14T08:00:49;5.53;;;2.90;;
30127;SDS011;16942;53.196;6.592;2023-06-14T08:03:16;8.80;;;4.03;;
30127;SDS011;16942;53.196;6.592;2023-06-14T08:05:43;3.37;;;2.20;;
30127;SDS011;16942;53.196;6.592;2023-06-14T08:08:09;8.20;;;2.77;;
30127;SDS011;16942;53.196;6.592;2023-06-14T08:10:35;4.80;;;2.50;;
30127;SDS011;16942;53.196;6.592;2023-06-14T08:13:01;4.03;;;2.63;;
30127;SDS011;16942;53.196;6.592;2023-06-14T08:15:27;5.70;;;2.87;;
30127;SDS011;16942;53.196;6.592;2023-06-14T08:17:53;4.63;;;2.70;;
30127;SDS011;16942;53.196;6.592;2023-06-14T08:20:19;4.40;;;2.40;;
30127;SDS011;16942;53.196;6.592;2023-06-14T08:22:45;7.60;;;2.50;;
30127;SDS011;16942;53.196;6.592;2023-06-14T08:25:13;5.60;;;2.38;;
30127;SDS011;16942;53.196;6.592;2023-06-14T08:27:39;12.45;;;2.50;;
30127;SDS011;16942;53.196;6.592;2023-06-14T08:30:05;7.30;;;2.37;;
30127;SDS011;16942;53.196;6.592;2023-06-14T08:32:33;3.83;;;2.30;;
30127;SDS011;16942;53.196;6.592;2023-06-14T08:34:59;4.57;;;2.63;;
30127;SDS011;16942;53.196;6.592;2023-06-14T08:37:25;9.57;;;2.58;;
30127;SDS011;16942;53.196;6.592;2023-06-14T08:39:51;5.90;;;2.65;;
30127;SDS011;16942;53.196;6.592;2023-06-14T08:42:17;4.60;;;2.22;;
30127;SDS011;16942;53.196;6.592;2023-06-14T08:44:44;7.13;;;2.90;;
30127;SDS011;16942;53.196;6.592;2023-06-14T08:47:10;8.50;;;3.13;;
30127;SDS011;16942;53.196;6.592;2023-06-14T08:49:38;5.38;;;2.63;;
30127;SDS011;16942;53.196;6.592;2023-06-14T08:52:05;3.63;;;2.55;;
30127;SDS011;16942;53.196;6.592;2023-06-14T08:54:33;6.82;;;2.17;;
30127;SDS011;16942;53.196;6.592;2023-06-14T08:57:02;4.25;;;2.22;;
30127;SDS011;16942;53.196;6.592;2023-06-14T08:59:29;5.57;;;2.50;;
30127;SDS011;16942;53.196;6.592;2023-06-14T09:01:58;2.58;;;2.25;;
30127;SDS011;16942;53.196;6.592;2023-06-14T09:04:25;5.50;;;2.58;;
30127;SDS011;16942;53.196;6.592;2023-06-14T09:06:54;5.18;;;2.47;;
30127;SDS011;16942;53.196;6.592;2023-06-14T09:09:20;5.57;;;2.55;;
30127;SDS011;16942;53.196;6.592;2023-06-14T09:11:48;3.83;;;2.20;;
30127;SDS011;16942;53.196;6.592;2023-06-14T09:14:14;4.97;;;2.72;;
30127;SDS011;16942;53.196;6.592;2023-06-14T09:16:40;8.65;;;3.00;;
30127;SDS011;16942;53.196;6.592;2023-06-14T09:19:06;10.00;;;2.90;;
30127;SDS011;16942;53.196;6.592;2023-06-14T09:21:33;8.35;;;3.15;;
30127;SDS011;16942;53.196;6.592;2023-06-14T09:24:01;4.88;;;3.03;;
30127;SDS011;16942;53.196;6.592;2023-06-14T09:26:27;6.55;;;2.90;;
30127;SDS011;16942;53.196;6.592;2023-06-14T09:28:54;8.93;;;2.97;;
30127;SDS011;16942;53.196;6.592;2023-06-14T09:31:20;6.43;;;2.65;;
30127;SDS011;16942;53.196;6.592;2023-06-14T09:33:50;7.78;;;2.35;;
30127;SDS011;16942;53.196;6.592;2023-06-14T09:36:22;8.30;;;2.60;;
30127;SDS011;16942;53.196;6.592;2023-06-14T09:38:55;7.57;;;2.63;;
30127;SDS011;16942;53.196;6.592;2023-06-14T09:44:17;5.97;;;2.50;;
30127;SDS011;16942;53.196;6.592;2023-06-14T09:46:43;8.15;;;2.70;;
30127;SDS011;16942;53.196;6.592;2023-06-14T09:49:10;4.72;;;2.60;;
30127;SDS011;16942;53.196;6.592;2023-06-14T09:51:50;4.03;;;2.63;;
30127;SDS011;16942;53.196;6.592;2023-06-14T09:54:25;6.85;;;2.40;;
30127;SDS011;16942;53.196;6.592;2023-06-14T09:56:58;4.00;;;2.40;;
30127;SDS011;16942;53.196;6.592;2023-06-14T09:59:28;4.15;;;2.28;;
30127;SDS011;16942;53.196;6.592;2023-06-14T10:02:00;6.32;;;2.60;;
30127;SDS011;16942;53.196;6.592;2023-06-14T10:04:30;3.85;;;2.50;;
30127;SDS011;16942;53.196;6.592;2023-06-14T10:06:57;4.63;;;2.22;;
30127;SDS011;16942;53.196;6.592;2023-06-14T10:09:23;3.42;;;2.40;;
30127;SDS011;16942;53.196;6.592;2023-06-14T10:11:50;7.63;;;2.30;;
30127;SDS011;16942;53.196;6.592;2023-06-14T10:14:16;3.65;;;2.50;;
30127;SDS011;16942;53.196;6.592;2023-06-14T10:19:20;6.57;;;2.50;;
30127;SDS011;16942;53.196;6.592;2023-06-14T10:24:14;9.55;;;2.60;;
30127;SDS011;16942;53.196;6.592;2023-06-14T10:26:51;6.65;;;2.47;;
30127;SDS011;16942;53.196;6.592;2023-06-14T10:29:17;6.78;;;2.20;;
30127;SDS011;16942;53.196;6.592;2023-06-14T10:34:10;3.03;;;2.40;;
30127;SDS011;16942;53.196;6.592;2023-06-14T10:36:37;2.72;;;2.10;;
30127;SDS011;16942;53.196;6.592;2023-06-14T10:41:30;7.60;;;2.58;;
30127;SDS011;16942;53.196;6.592;2023-06-14T10:44:10;6.68;;;2.72;;
30127;SDS011;16942;53.196;6.592;2023-06-14T10:46:36;2.53;;;2.30;;
30127;SDS011;16942;53.196;6.592;2023-06-14T10:49:02;6.20;;;2.60;;
30127;SDS011;16942;53.196;6.592;2023-06-14T10:51:29;10.93;;;2.85;;
30127;SDS011;16942;53.196;6.592;2023-06-14T10:53:56;5.82;;;2.40;;
30127;SDS011;16942;53.196;6.592;2023-06-14T10:56:28;3.80;;;2.40;;
30127;SDS011;16942;53.196;6.592;2023-06-14T10:58:55;3.13;;;2.45;;
30127;SDS011;16942;53.196;6.592;2023-06-14T11:04:23;7.40;;;2.47;;
30127;SDS011;16942;53.196;6.592;2023-06-14T11:07:03;7.28;;;2.50;;
30127;SDS011;16942;53.196;6.592;2023-06-14T11:12:03;3.25;;;2.20;;
30127;SDS011;16942;53.196;6.592;2023-06-14T11:14:30;10.82;;;2.20;;
30127;SDS011;16942;53.196;6.592;2023-06-14T11:16:56;5.03;;;2.38;;
30127;SDS011;16942;53.196;6.592;2023-06-14T11:19:22;4.63;;;2.30;;
30127;SDS011;16942;53.196;6.592;2023-06-14T11:21:49;10.05;;;2.38;;
30127;SDS011;16942;53.196;6.592;2023-06-14T11:24:16;6.55;;;2.10;;
30127;SDS011;16942;53.196;6.592;2023-06-14T11:26:42;15.45;;;2.40;;
30127;SDS011;16942;53.196;6.592;2023-06-14T11:29:08;2.72;;;2.30;;
30127;SDS011;16942;53.196;6.592;2023-06-14T11:31:34;6.95;;;2.22;;
30127;SDS011;16942;53.196;6.592;2023-06-14T11:34:00;2.63;;;1.90;;
30127;SDS011;16942;53.196;6.592;2023-06-14T11:36:30;6.63;;;2.47;;
30127;SDS011;16942;53.196;6.592;2023-06-14T11:39:00;4.63;;;2.00;;
30127;SDS011;16942;53.196;6.592;2023-06-14T11:41:32;9.68;;;2.10;;
30127;SDS011;16942;53.196;6.592;2023-06-14T11:43:59;11.57;;;2.30;;
30127;SDS011;16942;53.196;6.592;2023-06-14T11:46:25;3.55;;;1.95;;
30127;SDS011;16942;53.196;6.592;2023-06-14T11:48:51;4.30;;;1.73;;
30127;SDS011;16942;53.196;6.592;2023-06-14T11:51:18;2.03;;;1.85;;
30127;SDS011;16942;53.196;6.592;2023-06-14T11:53:45;4.38;;;1.90;;
30127;SDS011;16942;53.196;6.592;2023-06-14T11:56:11;3.40;;;1.80;;
30127;SDS011;16942;53.196;6.592;2023-06-14T11:58:37;1.90;;;1.63;;
30127;SDS011;16942;53.196;6.592;2023-06-14T12:01:03;4.18;;;1.90;;
30127;SDS011;16942;53.196;6.592;2023-06-14T12:03:30;3.17;;;1.92;;
30127;SDS011;16942;53.196;6.592;2023-06-14T12:06:05;5.72;;;1.95;;
30127;SDS011;16942;53.196;6.592;2023-06-14T12:08:35;6.75;;;2.05;;
30127;SDS011;16942;53.196;6.592;2023-06-14T12:11:04;8.50;;;1.90;;
30127;SDS011;16942;53.196;6.592;2023-06-14T12:13:31;5.18;;;1.85;;
30127;SDS011;16942;53.196;6.592;2023-06-14T12:15:57;7.00;;;2.15;;
30127;SDS011;16942;53.196;6.592;2023-06-14T12:18:44;9.15;;;2.20;;
30127;SDS011;16942;53.196;6.592;2023-06-14T12:21:10;3.08;;;1.50;;
30127;SDS011;16942;53.196;6.592;2023-06-14T12:26:09;2.83;;;1.70;;
30127;SDS011;16942;53.196;6.592;2023-06-14T12:28:35;3.33;;;1.88;;
30127;SDS011;16942;53.196;6.592;2023-06-14T12:31:01;8.65;;;2.13;;
30127;SDS011;16942;53.196;6.592;2023-06-14T12:33:28;2.45;;;1.90;;
30127;SDS011;16942;53.196;6.592;2023-06-14T12:35:55;3.08;;;2.05;;
30127;SDS011;16942;53.196;6.592;2023-06-14T12:38:23;4.15;;;1.83;;
30127;SDS011;16942;53.196;6.592;2023-06-14T12:40:49;4.32;;;2.10;;
30127;SDS011;16942;53.196;6.592;2023-06-14T12:43:15;3.78;;;1.60;;
30127;SDS011;16942;53.196;6.592;2023-06-14T12:45:41;4.47;;;2.38;;
30127;SDS011;16942;53.196;6.592;2023-06-14T12:48:07;4.97;;;2.42;;
30127;SDS011;16942;53.196;6.592;2023-06-14T12:50:34;7.40;;;2.00;;
30127;SDS011;16942;53.196;6.592;2023-06-14T12:53:00;6.95;;;2.30;;
30127;SDS011;16942;53.196;6.592;2023-06-14T12:55:26;2.63;;;1.98;;
30127;SDS011;16942;53.196;6.592;2023-06-14T12:57:52;3.40;;;1.80;;
30127;SDS011;16942;53.196;6.592;2023-06-14T13:00:18;5.72;;;1.80;;
30127;SDS011;16942;53.196;6.592;2023-06-14T13:02:45;5.40;;;2.10;;
30127;SDS011;16942;53.196;6.592;2023-06-14T13:05:11;8.77;;;2.03;;
30127;SDS011;16942;53.196;6.592;2023-06-14T13:07:37;4.32;;;2.05;;
30127;SDS011;16942;53.196;6.592;2023-06-14T13:10:03;4.47;;;1.98;;
30127;SDS011;16942;53.196;6.592;2023-06-14T13:12:30;4.95;;;2.05;;
30127;SDS011;16942;53.196;6.592;2023-06-14T13:14:55;8.77;;;2.50;;
30127;SDS011;16942;53.196;6.592;2023-06-14T13:17:21;11.95;;;3.85;;
30127;SDS011;16942;53.196;6.592;2023-06-14T13:19:47;10.10;;;3.08;;
30127;SDS011;16942;53.196;6.592;2023-06-14T13:22:13;2.80;;;2.30;;
30127;SDS011;16942;53.196;6.592;2023-06-14T13:24:39;3.03;;;1.80;;
30127;SDS011;16942;53.196;6.592;2023-06-14T13:27:06;3.85;;;2.22;;
30127;SDS011;16942;53.196;6.592;2023-06-14T13:29:32;3.75;;;1.90;;
30127;SDS011;16942;53.196;6.592;2023-06-14T13:32:00;6.57;;;2.30;;
30127;SDS011;16942;53.196;6.592;2023-06-14T13:34:26;9.45;;;2.20;;
30127;SDS011;16942;53.196;6.592;2023-06-14T13:36:52;5.85;;;2.30;;
30127;SDS011;16942;53.196;6.592;2023-06-14T13:39:18;3.58;;;1.98;;
30127;SDS011;16942;53.196;6.592;2023-06-14T13:41:45;5.90;;;2.00;;
30127;SDS011;16942;53.196;6.592;2023-06-14T13:44:11;4.95;;;2.20;;
30127;SDS011;16942;53.196;6.592;2023-06-14T13:46:39;2.22;;;2.00;;
30127;SDS011;16942;53.196;6.592;2023-06-14T13:49:05;2.92;;;2.38;;
30127;SDS011;16942;53.196;6.592;2023-06-14T13:51:31;2.10;;;1.92;;
30127;SDS011;16942;53.196;6.592;2023-06-14T13:53:58;3.17;;;2.35;;
30127;SDS011;16942;53.196;6.592;2023-06-14T13:56:24;7.18;;;2.70;;
30127;SDS011;16942;53.196;6.592;2023-06-14T13:58:50;11.57;;;2.85;;
30127;SDS011;16942;53.196;6.592;2023-06-14T14:01:17;2.13;;;1.98;;
30127;SDS011;16942;53.196;6.592;2023-06-14T14:03:46;2.70;;;1.90;;
30127;SDS011;16942;53.196;6.592;2023-06-14T14:06:12;2.70;;;2.03;;
30127;SDS011;16942;53.196;6.592;2023-06-14T14:08:38;2.45;;;2.20;;
30127;SDS011;16942;53.196;6.592;2023-06-14T14:11:05;3.65;;;2.33;;
30127;SDS011;16942;53.196;6.592;2023-06-14T14:13:31;7.05;;;2.17;;
30127;SDS011;16942;53.196;6.592;2023-06-14T14:15:57;2.35;;;2.17;;
30127;SDS011;16942;53.196;6.592;2023-06-14T14:18:24;3.42;;;2.30;;
30127;SDS011;16942;53.196;6.592;2023-06-14T14:20:50;3.78;;;2.28;;
30127;SDS011;16942;53.196;6.592;2023-06-14T14:23:16;2.20;;;2.03;;
30127;SDS011;16942;53.196;6.592;2023-06-14T14:25:42;3.92;;;2.08;;
30127;SDS011;16942;53.196;6.592;2023-06-14T14:28:08;3.80;;;2.08;;
30127;SDS011;16942;53.196;6.592;2023-06-14T14:30:36;7.03;;;2.30;;
30127;SDS011;16942;53.196;6.592;2023-06-14T14:33:04;3.55;;;2.35;;
30127;SDS011;16942;53.196;6.592;2023-06-14T14:35:31;3.15;;;2.50;;
30127;SDS011;16942;53.196;6.592;2023-06-14T14:37:57;4.22;;;3.00;;
30127;SDS011;16942;53.196;6.592;2023-06-14T14:40:23;6.18;;;2.42;;
30127;SDS011;16942;53.196;6.592;2023-06-14T14:42:49;6.20;;;2.40;;
30127;SDS011;16942;53.196;6.592;2023-06-14T14:45:15;7.55;;;2.20;;
30127;SDS011;16942;53.196;6.592;2023-06-14T14:47:41;4.75;;;2.15;;
30127;SDS011;16942;53.196;6.592;2023-06-14T14:50:08;3.05;;;2.13;;
30127;SDS011;16942;53.196;6.592;2023-06-14T14:52:37;7.88;;;2.67;;
30127;SDS011;16942;53.196;6.592;2023-06-14T14:55:03;4.15;;;2.72;;
30127;SDS011;16942;53.196;6.592;2023-06-14T14:57:29;3.67;;;2.33;;
30127;SDS011;16942;53.196;6.592;2023-06-14T14:59:56;2.50;;;2.20;;
30127;SDS011;16942;53.196;6.592;2023-06-14T15:02:22;6.90;;;2.80;;
30127;SDS011;16942;53.196;6.592;2023-06-14T15:04:49;3.75;;;2.88;;
30127;SDS011;16942;53.196;6.592;2023-06-14T15:07:15;6.15;;;2.63;;
30127;SDS011;16942;53.196;6.592;2023-06-14T15:09:41;4.70;;;2.22;;